KLNK/LNK METAR and TAF weather

Enter ICAO airport designator
Station Type Date Time Source
KLNK METAR 2019/08/22 08:54 UTC NOAA

KLNK 220854Z 01004KT 7SM SCT003 17/16 A3004 RMK AO2 SLP164 T01720161 56006


Station Type Date Time Source
KLNK Decoded METAR 2019/08/22 08:54 UTC NOAA

Station name not available
Aug 22, 2019 - 04:54 AM EDT / 2019.08.22 0854 UTC
Wind: from the N (010 degrees) at 5 MPH (4 KT):0
Visibility: 7 mile(s):0
Sky conditions: partly cloudy
Temperature: 63.0 F (17.2 C)
Dew Point: 61.0 F (16.1 C)
Relative Humidity: 93%
Pressure (altimeter): 30.04 in. Hg (1017 hPa)
Pressure tendency: 0.02 inches (0.6 hPa) lower than three hours ago
ob: KLNK 220854Z 01004KT 7SM SCT003 17/16 A3004 RMK AO2 SLP164 T01720161 56006
cycle: 9

Station Type Date Time Source
KLNK TAF 2019/08/22 09:04 UTC NOAA

TAF
AMD KLNK 220901Z 2209/2306 06006KT 6SM BR SCT003
TEMPO 2209/2212 4SM BR BKN003
FM221200 03004KT 6SM BR SCT010 SCT250
FM221400 07008KT P6SM SCT250

Example: see airport list